createdAt,value
2022-11-28T00:01:22.801Z,6.18
2022-11-28T00:03:49.930Z,5.93
2022-11-28T00:06:17.519Z,6.40
2022-11-28T00:08:44.504Z,6.40
2022-11-28T00:11:13.577Z,7.07
2022-11-28T00:13:41.024Z,6.18
2022-11-28T00:16:16.337Z,6.15
2022-11-28T00:18:43.507Z,5.63
2022-11-28T00:21:12.928Z,6.18
2022-11-28T00:23:40.343Z,6.22
2022-11-28T00:26:10.180Z,5.63
2022-11-28T00:28:37.628Z,5.68
2022-11-28T00:31:15.700Z,6.38
2022-11-28T00:33:42.752Z,6.90
2022-11-28T00:36:12.841Z,5.47
2022-11-28T00:38:40.057Z,5.45
2022-11-28T00:41:14.413Z,5.53
2022-11-28T00:43:43.053Z,5.05
2022-11-28T00:46:10.344Z,5.70
2022-11-28T00:48:37.524Z,5.57
2022-11-28T00:51:09.643Z,5.78
2022-11-28T00:53:42.051Z,6.22
2022-11-28T00:56:13.546Z,6.18
2022-11-28T00:58:41.347Z,6.75
2022-11-28T01:01:28.756Z,5.85
2022-11-28T01:03:57.296Z,5.13
2022-11-28T01:06:32.672Z,4.88
2022-11-28T01:09:01.355Z,5.85
2022-11-28T01:11:29.161Z,5.47
2022-11-28T01:13:57.805Z,5.03
2022-11-28T01:16:25.442Z,6.90
2022-11-28T01:18:52.535Z,5.78
2022-11-28T01:21:22.224Z,6.35
2022-11-28T01:23:49.202Z,5.20
2022-11-28T01:26:19.736Z,4.85
2022-11-28T01:28:47.178Z,5.75
2022-11-28T01:31:16.631Z,5.70
2022-11-28T01:33:43.819Z,5.68
2022-11-28T01:36:11.164Z,5.55
2022-11-28T01:38:38.072Z,5.30
2022-11-28T01:41:05.443Z,5.72
2022-11-28T01:43:32.626Z,5.47
2022-11-28T01:46:00.140Z,5.63
2022-11-28T01:48:31.518Z,5.90
2022-11-28T01:51:02.488Z,5.78
2022-11-28T01:53:31.260Z,5.60
2022-11-28T01:56:03.920Z,5.72
2022-11-28T01:58:31.019Z,5.95
2022-11-28T02:00:58.285Z,5.80
2022-11-28T02:03:41.789Z,6.07
2022-11-28T02:06:09.350Z,6.15
2022-11-28T02:08:36.878Z,5.93
2022-11-28T02:11:42.217Z,5.68
2022-11-28T02:14:29.779Z,5.70
2022-11-28T02:17:22.190Z,5.53
2022-11-28T02:20:04.087Z,5.93
2022-11-28T02:22:38.348Z,5.47
2022-11-28T02:25:15.869Z,5.72
2022-11-28T02:28:00.593Z,5.88
2022-11-28T02:30:34.135Z,6.32
2022-11-28T02:33:23.747Z,6.10
2022-11-28T02:36:06.034Z,6.25
2022-11-28T02:38:50.659Z,5.82
2022-11-28T02:41:32.929Z,6.50
2022-11-28T02:44:10.807Z,6.13
2022-11-28T02:46:45.432Z,5.85
2022-11-28T02:49:18.879Z,6.05
2022-11-28T02:52:28.944Z,6.40
2022-11-28T02:54:56.144Z,5.68
2022-11-28T02:57:23.312Z,6.28
2022-11-28T02:59:51.946Z,7.00
2022-11-28T03:02:29.272Z,6.25
2022-11-28T03:05:19.922Z,6.60
2022-11-28T03:08:00.855Z,6.65
2022-11-28T03:10:59.846Z,6.50
2022-11-28T03:14:01.701Z,6.25
2022-11-28T03:16:40.459Z,6.60
2022-11-28T03:19:20.094Z,5.95
2022-11-28T03:22:07.830Z,6.40
2022-11-28T03:24:36.125Z,5.90
2022-11-28T03:27:26.015Z,6.15
2022-11-28T03:30:15.181Z,6.55
2022-11-28T03:32:42.787Z,6.60
2022-11-28T03:35:16.622Z,6.80
2022-11-28T03:37:48.904Z,7.18
2022-11-28T03:40:20.552Z,6.28
2022-11-28T03:42:59.277Z,6.00
2022-11-28T03:45:29.094Z,6.85
2022-11-28T03:48:01.742Z,5.90
2022-11-28T03:50:39.704Z,6.90
2022-11-28T03:53:12.309Z,6.13
2022-11-28T03:55:48.613Z,6.65
2022-11-28T03:58:15.588Z,6.15
2022-11-28T04:00:52.235Z,6.60
2022-11-28T04:03:50.968Z,6.32
2022-11-28T04:06:44.901Z,7.10
2022-11-28T04:09:17.117Z,6.85
2022-11-28T04:11:50.992Z,7.17
2022-11-28T04:14:25.141Z,6.50
2022-11-28T04:17:08.915Z,7.20
2022-11-28T04:19:44.088Z,9.68
2022-11-28T04:22:18.817Z,7.25
2022-11-28T04:24:55.469Z,6.60
2022-11-28T04:27:27.564Z,6.10
2022-11-28T04:29:57.241Z,6.05
2022-11-28T04:32:25.589Z,6.70
2022-11-28T04:35:06.615Z,6.70
2022-11-28T04:37:34.846Z,6.68
2022-11-28T04:40:02.409Z,6.50
2022-11-28T04:42:41.486Z,6.55
2022-11-28T04:45:15.399Z,6.13
2022-11-28T04:47:43.648Z,6.10
2022-11-28T04:50:11.068Z,5.50
2022-11-28T04:52:40.758Z,5.00
2022-11-28T04:55:26.530Z,5.43
2022-11-28T04:57:57.971Z,5.40
2022-11-28T05:00:24.858Z,4.90
2022-11-28T05:02:53.824Z,6.32
2022-11-28T05:05:24.248Z,6.00
2022-11-28T05:07:52.576Z,5.85
2022-11-28T05:10:19.950Z,5.78
2022-11-28T05:12:46.867Z,7.05
2022-11-28T05:15:19.031Z,7.00
2022-11-28T05:17:46.891Z,6.70
2022-11-28T05:20:14.451Z,6.22
2022-11-28T05:22:41.343Z,8.30
2022-11-28T05:25:08.775Z,7.05
2022-11-28T05:27:35.717Z,7.50
2022-11-28T05:30:02.978Z,6.82
2022-11-28T05:32:31.288Z,7.05
2022-11-28T05:34:58.396Z,6.97
2022-11-28T05:37:25.716Z,6.93
2022-11-28T05:39:52.552Z,7.18
2022-11-28T05:42:19.435Z,6.55
2022-11-28T05:44:47.876Z,6.32
2022-11-28T05:47:15.922Z,6.97
2022-11-28T05:49:43.103Z,7.15
2022-11-28T05:52:10.146Z,9.13
2022-11-28T05:54:36.987Z,6.45
2022-11-28T05:57:06.471Z,7.95
2022-11-28T05:59:33.503Z,7.80
2022-11-28T06:02:00.588Z,8.32
2022-11-28T06:04:27.521Z,7.40
2022-11-28T06:06:54.611Z,7.28
2022-11-28T06:09:25.612Z,7.07
2022-11-28T06:11:53.053Z,7.63
2022-11-28T06:14:20.025Z,7.40
2022-11-28T06:16:47.008Z,8.05
2022-11-28T06:19:14.159Z,7.80
2022-11-28T06:21:41.425Z,7.57
2022-11-28T06:24:09.173Z,8.10
2022-11-28T06:26:36.340Z,7.05
2022-11-28T06:29:03.293Z,8.45
2022-11-28T06:31:30.546Z,7.55
2022-11-28T06:33:58.595Z,8.25
2022-11-28T06:36:26.610Z,8.02
2022-11-28T06:38:54.222Z,8.02
2022-11-28T06:41:22.981Z,7.65
2022-11-28T06:43:50.183Z,12.27
2022-11-28T06:46:21.087Z,10.00
2022-11-28T06:48:49.333Z,14.13
2022-11-28T06:51:16.913Z,8.93
2022-11-28T06:53:43.833Z,8.70
2022-11-28T06:56:19.372Z,8.43
2022-11-28T06:58:47.010Z,8.23
2022-11-28T07:01:16.939Z,6.93
2022-11-28T07:03:44.776Z,8.15
2022-11-28T07:06:12.362Z,12.18
2022-11-28T07:08:39.716Z,8.85
2022-11-28T07:11:11.388Z,7.13
2022-11-28T07:13:38.709Z,8.65
2022-11-28T07:16:06.835Z,7.10
2022-11-28T07:18:34.396Z,6.88
2022-11-28T07:21:01.267Z,7.60
2022-11-28T07:23:28.264Z,6.80
2022-11-28T07:26:01.354Z,8.75
2022-11-28T07:31:01.067Z,8.05
2022-11-28T07:33:28.240Z,8.83
2022-11-28T07:35:55.151Z,7.63
2022-11-28T07:38:21.961Z,6.75
2022-11-28T07:40:48.780Z,8.80
2022-11-28T07:43:15.607Z,5.70
2022-11-28T07:46:00.121Z,5.82
2022-11-28T07:48:27.631Z,6.18
2022-11-28T07:50:54.444Z,6.07
2022-11-28T07:53:21.379Z,5.70
2022-11-28T07:55:48.317Z,6.20
2022-11-28T07:58:15.196Z,5.50
2022-11-28T08:00:42.104Z,5.68
2022-11-28T08:03:09.593Z,6.20
2022-11-28T08:05:36.479Z,5.43
2022-11-28T08:08:03.633Z,6.10
2022-11-28T08:10:30.523Z,7.45
2022-11-28T08:12:57.993Z,7.25
2022-11-28T08:15:24.834Z,7.13
2022-11-28T08:17:51.655Z,9.13
2022-11-28T08:20:18.606Z,6.45
2022-11-28T08:22:45.666Z,9.18
2022-11-28T08:25:12.537Z,16.90
2022-11-28T08:27:39.696Z,18.25
2022-11-28T08:30:07.566Z,13.40
2022-11-28T08:32:35.018Z,9.07
2022-11-28T08:35:01.966Z,8.75
2022-11-28T08:37:29.205Z,11.18
2022-11-28T08:39:56.095Z,27.85
2022-11-28T08:42:22.929Z,17.95
2022-11-28T08:44:49.817Z,17.25
2022-11-28T08:47:16.695Z,12.15
2022-11-28T08:49:43.810Z,23.13
2022-11-28T08:52:11.045Z,13.38
2022-11-28T08:54:38.027Z,15.30
2022-11-28T08:57:05.431Z,13.10
2022-11-28T08:59:32.281Z,11.45
2022-11-28T09:01:59.490Z,10.48
2022-11-28T09:04:26.443Z,9.80
2022-11-28T09:06:53.687Z,10.98
2022-11-28T09:09:20.650Z,13.93
2022-11-28T09:11:47.534Z,12.35
2022-11-28T09:14:14.437Z,9.70
2022-11-28T09:16:41.624Z,9.50
2022-11-28T09:19:10.690Z,8.95
2022-11-28T09:21:38.115Z,9.90
2022-11-28T09:24:05.543Z,9.60
2022-11-28T09:26:33.322Z,8.98
2022-11-28T09:29:00.395Z,8.00
2022-11-28T09:31:27.677Z,9.52
2022-11-28T09:33:54.677Z,7.28
2022-11-28T09:36:23.512Z,8.15
2022-11-28T09:38:50.592Z,8.20
2022-11-28T09:41:26.435Z,8.35
2022-11-28T09:43:58.791Z,8.30
2022-11-28T09:46:29.392Z,7.15
2022-11-28T09:49:00.895Z,6.38
2022-11-28T09:51:50.563Z,7.88
2022-11-28T09:54:18.659Z,6.32
2022-11-28T09:56:48.610Z,6.88
2022-11-28T09:59:25.825Z,6.07
2022-11-28T10:02:04.325Z,6.05
2022-11-28T10:05:12.626Z,6.93
2022-11-28T10:08:20.318Z,6.15
2022-11-28T10:10:59.306Z,6.85
2022-11-28T10:14:08.221Z,7.93
2022-11-28T10:16:47.674Z,6.63
2022-11-28T10:19:46.038Z,6.00
2022-11-28T10:22:06.696Z,6.07
2022-11-28T10:24:43.869Z,7.13
2022-11-28T10:27:13.661Z,7.40
2022-11-28T10:29:56.361Z,14.68
2022-11-28T10:32:30.859Z,8.95
2022-11-28T10:35:04.709Z,6.97
2022-11-28T10:37:34.008Z,7.63
2022-11-28T10:40:28.468Z,8.07
2022-11-28T10:43:24.639Z,8.88
2022-11-28T10:46:18.324Z,7.93
2022-11-28T10:49:20.952Z,6.75
2022-11-28T10:52:15.869Z,7.55
2022-11-28T10:54:48.281Z,8.35
2022-11-28T10:57:53.302Z,8.55
2022-11-28T11:00:20.613Z,6.78
2022-11-28T11:02:55.380Z,8.77
2022-11-28T11:05:27.136Z,7.10
2022-11-28T11:07:56.738Z,6.82
2022-11-28T11:10:26.129Z,6.25
2022-11-28T11:12:53.504Z,7.00
2022-11-28T11:15:30.188Z,6.13
2022-11-28T11:17:58.831Z,6.85
2022-11-28T11:20:28.685Z,6.93
2022-11-28T11:23:00.422Z,7.65
2022-11-28T11:25:32.691Z,6.82
2022-11-28T11:28:02.294Z,6.93
2022-11-28T11:30:35.442Z,6.50
2022-11-28T11:33:05.077Z,7.22
2022-11-28T11:35:36.310Z,6.70
2022-11-28T11:38:20.974Z,7.30
2022-11-28T11:40:49.819Z,7.22
2022-11-28T11:43:36.934Z,7.30
2022-11-28T11:46:08.300Z,7.55
2022-11-28T11:48:53.988Z,10.35
2022-11-28T11:51:35.062Z,6.97
2022-11-28T11:54:13.976Z,7.47
2022-11-28T11:56:44.446Z,8.27
2022-11-28T11:59:27.173Z,7.78
2022-11-28T12:02:02.361Z,8.32
2022-11-28T12:04:45.693Z,7.47
2022-11-28T12:07:24.426Z,8.10
2022-11-28T12:09:54.748Z,7.45
2022-11-28T12:12:29.404Z,7.18
2022-11-28T12:14:56.248Z,7.43
2022-11-28T12:17:58.367Z,7.20
2022-11-28T12:20:56.982Z,7.00
2022-11-28T12:24:15.604Z,7.43
2022-11-28T12:26:50.625Z,8.95
2022-11-28T12:29:26.058Z,8.30
2022-11-28T12:32:34.587Z,9.57
2022-11-28T12:35:34.814Z,14.00
2022-11-28T12:38:18.249Z,8.68
2022-11-28T12:41:03.061Z,12.77
2022-11-28T12:44:00.563Z,8.82
2022-11-28T12:46:35.787Z,8.38
2022-11-28T12:49:25.250Z,8.30
2022-11-28T12:52:06.994Z,8.38
2022-11-28T12:54:38.723Z,10.13
2022-11-28T12:57:19.254Z,7.07
2022-11-28T12:59:52.172Z,8.93
2022-11-28T13:02:34.579Z,8.70
2022-11-28T13:05:23.026Z,7.97
2022-11-28T13:07:58.784Z,9.65
2022-11-28T13:11:02.345Z,18.20
2022-11-28T13:13:53.924Z,9.32
2022-11-28T13:16:38.564Z,13.18
2022-11-28T13:19:46.296Z,8.73
2022-11-28T13:22:29.734Z,8.18
2022-11-28T13:25:07.187Z,9.90
2022-11-28T13:28:02.368Z,10.30
2022-11-28T13:30:32.487Z,7.80
2022-11-28T13:33:14.763Z,9.27
2022-11-28T13:35:43.004Z,8.43
2022-11-28T13:38:35.970Z,8.32
2022-11-28T13:41:06.711Z,7.97
2022-11-28T13:43:52.845Z,8.13
2022-11-28T13:46:19.941Z,8.65
2022-11-28T13:51:35.271Z,8.82
2022-11-28T13:54:20.448Z,9.05
2022-11-28T13:57:04.746Z,9.85
2022-11-28T13:59:32.244Z,8.48
2022-11-28T14:02:02.128Z,8.65
2022-11-28T14:04:30.249Z,10.18
2022-11-28T14:07:02.642Z,10.43
2022-11-28T14:09:54.021Z,10.13
2022-11-28T14:12:47.350Z,9.23
2022-11-28T14:15:20.194Z,9.15
2022-11-28T14:18:19.159Z,10.27
2022-11-28T14:20:59.197Z,15.38
2022-11-28T14:23:45.680Z,16.10
2022-11-28T14:26:21.160Z,8.50
2022-11-28T14:28:48.906Z,8.50
2022-11-28T14:31:32.648Z,9.07
2022-11-28T14:34:01.276Z,8.43
2022-11-28T14:36:31.009Z,71.25
2022-11-28T14:39:05.285Z,12.55
2022-11-28T14:41:32.453Z,10.00
2022-11-28T14:44:36.511Z,7.90
2022-11-28T14:47:32.210Z,9.85
2022-11-28T14:50:04.861Z,8.68
2022-11-28T14:52:42.393Z,9.02
2022-11-28T14:55:12.058Z,14.63
2022-11-28T14:58:00.244Z,10.80
2022-11-28T15:00:44.008Z,11.90
2022-11-28T15:03:35.691Z,14.93
2022-11-28T15:06:18.558Z,14.23
2022-11-28T15:09:00.114Z,12.60
2022-11-28T15:11:42.850Z,10.73
2022-11-28T15:14:18.312Z,12.23
2022-11-28T15:16:50.420Z,11.60
2022-11-28T15:19:22.426Z,11.13
2022-11-28T15:21:51.658Z,20.30
2022-11-28T15:24:27.477Z,15.27
2022-11-28T15:26:57.744Z,12.60
2022-11-28T15:29:28.648Z,30.73
2022-11-28T15:31:57.512Z,11.40
2022-11-28T15:34:33.155Z,10.65
2022-11-28T15:37:27.485Z,10.98
2022-11-28T15:39:54.550Z,10.55
2022-11-28T15:42:21.383Z,15.77
2022-11-28T15:44:57.506Z,17.95
2022-11-28T15:47:24.953Z,17.15
2022-11-28T15:50:05.586Z,13.88
2022-11-28T15:52:32.527Z,13.23
2022-11-28T15:54:59.423Z,12.25
2022-11-28T15:57:28.697Z,14.60
2022-11-28T15:59:56.909Z,20.40
2022-11-28T16:02:33.339Z,37.55
2022-11-28T16:05:09.321Z,21.02
2022-11-28T16:07:40.882Z,14.07
2022-11-28T16:10:21.371Z,15.18
2022-11-28T16:12:48.594Z,15.82
2022-11-28T16:15:23.464Z,13.35
2022-11-28T16:17:50.669Z,15.82
2022-11-28T16:20:36.346Z,16.08
2022-11-28T16:23:20.771Z,16.80
2022-11-28T16:26:01.478Z,18.67
2022-11-28T16:28:36.482Z,19.30
2022-11-28T16:31:11.260Z,17.70
2022-11-28T16:33:43.121Z,19.42
2022-11-28T16:36:21.123Z,23.38
2022-11-28T16:38:49.849Z,25.73
2022-11-28T16:41:27.733Z,18.90
2022-11-28T16:43:59.395Z,20.00
2022-11-28T16:46:37.599Z,21.85
2022-11-28T16:49:07.188Z,17.27
2022-11-28T16:51:42.295Z,21.02
2022-11-28T16:54:22.968Z,19.50
2022-11-28T16:56:49.888Z,20.90
2022-11-28T16:59:19.299Z,20.25
2022-11-28T17:01:53.058Z,17.30
2022-11-28T17:04:21.474Z,16.85
2022-11-28T17:06:48.974Z,18.67
2022-11-28T17:09:15.836Z,15.30
2022-11-28T17:12:07.484Z,15.18
2022-11-28T17:14:35.168Z,15.95
2022-11-28T17:17:02.073Z,15.18
2022-11-28T17:19:29.220Z,16.42
2022-11-28T17:21:58.603Z,15.63
2022-11-28T17:24:27.702Z,16.23
2022-11-28T17:26:54.817Z,16.38
2022-11-28T17:29:22.302Z,15.25
2022-11-28T17:31:49.631Z,16.17
2022-11-28T17:34:21.002Z,17.48
2022-11-28T17:36:48.385Z,18.35
2022-11-28T17:39:15.975Z,20.35
2022-11-28T17:41:43.528Z,16.25
2022-11-28T17:44:20.804Z,16.02
2022-11-28T17:46:48.339Z,16.02
2022-11-28T17:49:15.243Z,15.05
2022-11-28T17:51:42.593Z,46.22
2022-11-28T17:54:17.074Z,46.50
2022-11-28T17:56:45.106Z,18.92
2022-11-28T17:59:12.921Z,17.73
2022-11-28T18:01:43.587Z,14.93
2022-11-28T18:04:10.761Z,15.13
2022-11-28T18:06:37.945Z,30.80
2022-11-28T18:09:11.699Z,20.42
2022-11-28T18:11:39.860Z,24.10
2022-11-28T18:14:08.600Z,27.90
2022-11-28T18:16:45.645Z,20.83
2022-11-28T18:19:12.823Z,19.08
2022-11-28T18:21:44.201Z,15.38
2022-11-28T18:24:11.122Z,27.45
2022-11-28T18:26:38.087Z,19.10
2022-11-28T18:29:05.215Z,19.70
2022-11-28T18:31:32.044Z,24.45
2022-11-28T18:34:03.813Z,20.33
2022-11-28T18:36:32.501Z,18.98
2022-11-28T18:39:01.367Z,18.80
2022-11-28T18:41:29.170Z,20.15
2022-11-28T18:44:00.304Z,17.52
2022-11-28T18:46:28.039Z,26.42
2022-11-28T18:48:54.912Z,34.92
2022-11-28T18:51:26.909Z,32.35
2022-11-28T18:53:55.670Z,17.00
2022-11-28T18:56:24.078Z,16.05
2022-11-28T18:58:52.625Z,16.80
2022-11-28T19:01:30.893Z,18.17
2022-11-28T19:04:01.229Z,16.10
2022-11-28T19:06:28.657Z,15.75
2022-11-28T19:08:57.579Z,15.40
2022-11-28T19:11:24.555Z,14.35
2022-11-28T19:13:53.667Z,14.00
2022-11-28T19:16:26.866Z,16.20
2022-11-28T19:18:56.403Z,14.75
2022-11-28T19:21:29.155Z,17.48
2022-11-28T19:24:02.245Z,15.80
2022-11-28T19:29:22.151Z,15.32
2022-11-28T19:34:32.987Z,15.18
2022-11-28T19:37:05.160Z,13.88
2022-11-28T20:15:16.719Z,12.50
2022-11-28T20:20:12.318Z,11.05
2022-11-28T20:33:05.079Z,13.10
2022-11-28T20:35:43.858Z,12.55
2022-11-28T20:38:26.384Z,13.68
2022-11-28T20:44:32.765Z,13.35
2022-11-28T20:46:59.670Z,11.57
2022-11-28T20:49:31.252Z,11.45
2022-11-28T20:52:24.103Z,11.85
2022-11-28T20:54:51.918Z,11.88
2022-11-28T20:57:22.747Z,11.13
2022-11-28T20:59:55.732Z,10.95
2022-11-28T21:02:23.275Z,11.10
2022-11-28T21:04:56.603Z,14.10
2022-11-28T21:07:27.295Z,11.52
2022-11-28T21:09:59.851Z,10.02
2022-11-28T21:12:26.749Z,11.43
2022-11-28T21:14:54.753Z,10.98
2022-11-28T21:17:21.856Z,11.85
2022-11-28T21:19:48.803Z,10.90
2022-11-28T21:22:15.646Z,11.43
2022-11-28T21:24:42.537Z,10.40
2022-11-28T21:27:12.522Z,9.80
2022-11-28T21:29:39.400Z,10.07
2022-11-28T21:32:06.490Z,11.30
2022-11-28T21:34:33.909Z,11.93
2022-11-28T21:37:00.707Z,12.13
2022-11-28T21:39:28.142Z,10.93
2022-11-28T21:41:55.005Z,11.90
2022-11-28T21:44:22.015Z,11.32
2022-11-28T21:46:48.987Z,11.52
2022-11-28T21:49:15.867Z,11.60
2022-11-28T21:51:42.735Z,11.23
2022-11-28T21:54:10.973Z,10.80
2022-11-28T21:56:37.956Z,11.05
2022-11-28T21:59:05.010Z,11.10
2022-11-28T22:01:32.012Z,10.88
2022-11-28T22:04:02.663Z,10.80
2022-11-28T22:06:30.298Z,10.85
2022-11-28T22:08:57.404Z,11.32
2022-11-28T22:11:24.944Z,10.85
2022-11-28T22:13:52.868Z,11.23
2022-11-28T22:16:25.349Z,11.43
2022-11-28T22:18:53.870Z,11.02
2022-11-28T22:21:50.717Z,10.18
2022-11-28T22:24:08.692Z,10.35
2022-11-28T22:26:38.463Z,11.85
2022-11-28T22:29:05.576Z,10.73
2022-11-28T22:31:32.649Z,10.20
2022-11-28T22:33:59.685Z,11.30
2022-11-28T22:36:26.715Z,10.38
2022-11-28T22:38:58.680Z,11.10
2022-11-28T22:41:29.192Z,11.65
2022-11-28T22:43:59.579Z,10.32
2022-11-28T22:46:26.825Z,10.82
2022-11-28T22:48:53.673Z,10.88
2022-11-28T22:51:25.404Z,11.10
2022-11-28T22:53:56.994Z,10.60
2022-11-28T22:56:24.224Z,10.88
2022-11-28T22:58:51.330Z,10.88
2022-11-28T23:01:26.984Z,10.52
2022-11-28T23:03:54.520Z,11.73
2022-11-28T23:06:23.970Z,11.85
2022-11-28T23:08:51.176Z,10.18
2022-11-28T23:11:20.921Z,9.75
2022-11-28T23:13:49.184Z,9.65
2022-11-28T23:16:24.976Z,10.13
2022-11-28T23:18:54.201Z,10.30
2022-11-28T23:21:22.536Z,9.82
2022-11-28T23:23:49.932Z,10.50
2022-11-28T23:26:20.004Z,10.10
2022-11-28T23:28:47.218Z,10.10
2022-11-28T23:31:19.825Z,11.10
2022-11-28T23:33:47.329Z,10.05
2022-11-28T23:36:42.773Z,10.45
2022-11-28T23:39:20.473Z,10.32
2022-11-28T23:41:47.712Z,10.02
2022-11-28T23:44:15.854Z,10.05
2022-11-28T23:46:43.211Z,10.13
2022-11-28T23:49:10.496Z,10.80
2022-11-28T23:51:38.439Z,9.65
2022-11-28T23:54:05.610Z,10.30
2022-11-28T23:56:35.080Z,10.07
2022-11-28T23:59:04.372Z,10.00
